createdAt,value
2023-03-26T00:00:53.218Z,65.55
2023-03-26T00:03:56.872Z,65.08
2023-03-26T00:06:58.561Z,65.41
2023-03-26T00:10:00.292Z,65.13
2023-03-26T00:13:02.156Z,65.31
2023-03-26T00:16:04.439Z,65.42
2023-03-26T00:19:08.126Z,65.99
2023-03-26T00:22:10.046Z,66.43
2023-03-26T00:25:12.061Z,66.14
2023-03-26T00:28:13.752Z,66.97
2023-03-26T00:31:15.609Z,66.82
2023-03-26T00:34:18.898Z,67.25
2023-03-26T00:37:20.605Z,67.54
2023-03-26T00:40:22.372Z,67.84
2023-03-26T00:43:24.093Z,68.14
2023-03-26T00:46:27.848Z,68.15
2023-03-26T00:49:30.741Z,68.76
2023-03-26T00:52:32.442Z,68.49
2023-03-26T00:55:34.249Z,68.28
2023-03-26T00:58:36.585Z,68.46
2023-03-26T01:01:38.473Z,68.84
2023-03-26T01:04:45.277Z,68.21
2023-03-26T01:07:47.053Z,68.89
2023-03-26T01:10:49.677Z,69.10
2023-03-26T01:13:54.587Z,69.32
2023-03-26T01:16:58.053Z,70.03
2023-03-26T01:20:09.814Z,69.50
2023-03-26T01:23:11.629Z,69.93
2023-03-26T01:26:29.278Z,69.77
2023-03-26T01:29:37.925Z,70.15
2023-03-26T01:32:55.486Z,70.65
2023-03-26T01:36:00.768Z,70.70
2023-03-26T01:39:08.647Z,71.47
2023-03-26T01:42:17.640Z,71.58
2023-03-26T01:45:25.344Z,72.55
2023-03-26T01:48:33.533Z,71.79
2023-03-26T01:51:35.977Z,72.11
2023-03-26T01:54:37.738Z,71.25
2023-03-26T01:57:54.479Z,71.64
2023-03-26T02:01:05.436Z,71.65
2023-03-26T02:04:17.366Z,71.97
2023-03-26T02:07:25.103Z,70.99
2023-03-26T02:10:29.395Z,71.54
2023-03-26T02:13:33.146Z,70.53
2023-03-26T02:16:35.114Z,70.43
2023-03-26T02:19:36.989Z,71.09
2023-03-26T02:22:39.468Z,71.19
2023-03-26T02:25:41.179Z,71.65
2023-03-26T02:28:44.531Z,71.12
2023-03-26T02:31:46.500Z,71.57
2023-03-26T02:34:48.222Z,71.55
2023-03-26T02:37:50.031Z,71.68
2023-03-26T02:40:51.773Z,72.29
2023-03-26T02:43:54.896Z,72.20
2023-03-26T02:46:56.630Z,72.36
2023-03-26T02:49:59.548Z,71.69
2023-03-26T02:53:01.249Z,72.73
2023-03-26T02:56:03.586Z,73.14
2023-03-26T02:59:06.687Z,74.06
2023-03-26T03:02:08.870Z,74.89
2023-03-26T03:05:10.683Z,74.61
2023-03-26T03:08:12.405Z,75.11
2023-03-26T03:11:16.794Z,75.38
2023-03-26T03:14:20.365Z,76.32
2023-03-26T03:17:22.099Z,75.92
2023-03-26T03:20:23.852Z,76.34
2023-03-26T03:23:25.567Z,76.52
2023-03-26T03:26:27.897Z,76.77
2023-03-26T03:29:31.051Z,76.68
2023-03-26T03:32:33.467Z,76.47
2023-03-26T03:35:35.481Z,76.40
2023-03-26T03:38:37.420Z,76.49
2023-03-26T03:41:39.408Z,76.93
2023-03-26T03:44:42.465Z,77.39
2023-03-26T03:47:44.774Z,77.80
2023-03-26T03:50:46.578Z,77.90
2023-03-26T03:53:48.320Z,78.41
2023-03-26T03:56:50.290Z,78.06
2023-03-26T03:59:53.460Z,77.99
2023-03-26T04:02:55.202Z,78.62
2023-03-26T04:05:57.048Z,79.22
2023-03-26T04:08:58.844Z,78.82
2023-03-26T04:12:00.529Z,78.46
2023-03-26T04:15:04.525Z,78.51
2023-03-26T04:18:06.840Z,78.80
2023-03-26T04:21:08.773Z,79.61
2023-03-26T04:24:10.552Z,79.34
2023-03-26T04:27:14.793Z,79.75
2023-03-26T04:30:20.230Z,79.72
2023-03-26T04:33:22.330Z,79.42
2023-03-26T04:36:26.648Z,78.96
2023-03-26T04:39:28.847Z,80.03
2023-03-26T04:42:30.549Z,79.49
2023-03-26T04:45:33.607Z,79.81
2023-03-26T04:48:35.736Z,79.25
2023-03-26T04:51:38.944Z,79.65
2023-03-26T04:54:42.989Z,79.54
2023-03-26T04:57:49.806Z,80.22
2023-03-26T05:00:52.879Z,80.15
2023-03-26T05:03:55.098Z,79.94
2023-03-26T05:06:57.580Z,79.83
2023-03-26T05:09:59.379Z,80.13
2023-03-26T05:13:01.209Z,80.25
2023-03-26T05:16:04.910Z,81.06
2023-03-26T05:19:06.712Z,80.90
2023-03-26T05:22:08.440Z,80.13
2023-03-26T05:25:10.449Z,80.54
2023-03-26T05:28:12.143Z,78.85
2023-03-26T05:31:17.887Z,78.71
2023-03-26T05:34:19.924Z,79.02
2023-03-26T05:37:21.670Z,78.12
2023-03-26T05:40:23.354Z,77.35
2023-03-26T05:43:25.351Z,76.49
2023-03-26T05:46:28.737Z,76.33
2023-03-26T05:49:30.509Z,74.63
2023-03-26T05:52:32.521Z,74.32
2023-03-26T05:55:34.205Z,74.76
2023-03-26T05:58:36.645Z,72.48
2023-03-26T06:01:39.725Z,71.78
2023-03-26T06:04:41.579Z,71.58
2023-03-26T06:07:43.367Z,70.67
2023-03-26T06:10:45.531Z,70.42
2023-03-26T06:13:47.510Z,70.11
2023-03-26T06:16:50.591Z,70.80
2023-03-26T06:19:52.349Z,69.90
2023-03-26T06:22:54.333Z,69.34
2023-03-26T06:25:56.285Z,68.01
2023-03-26T06:28:57.923Z,68.41
2023-03-26T06:32:12.480Z,68.12
2023-03-26T06:35:18.496Z,66.64
2023-03-26T06:38:20.275Z,65.15
2023-03-26T06:41:21.935Z,65.44
2023-03-26T06:44:23.664Z,63.40
2023-03-26T06:47:26.759Z,63.96
2023-03-26T06:50:29.633Z,63.22
2023-03-26T06:53:31.614Z,64.00
2023-03-26T06:56:33.359Z,61.62
2023-03-26T06:59:35.141Z,61.08
2023-03-26T07:02:38.537Z,59.47
2023-03-26T07:05:41.320Z,59.99
2023-03-26T07:08:43.019Z,59.37
2023-03-26T07:11:44.692Z,59.78
2023-03-26T07:14:46.380Z,58.49
2023-03-26T07:17:49.410Z,59.46
2023-03-26T07:20:51.616Z,56.99
2023-03-26T07:23:56.216Z,57.73
2023-03-26T07:27:04.051Z,58.83
2023-03-26T07:30:12.186Z,59.34
2023-03-26T07:33:22.191Z,57.68
2023-03-26T07:36:29.501Z,57.29
2023-03-26T07:39:44.708Z,57.82
2023-03-26T07:42:58.108Z,58.41
2023-03-26T07:46:00.330Z,57.94
2023-03-26T07:49:04.451Z,57.89
2023-03-26T07:52:06.680Z,58.87
2023-03-26T07:55:13.416Z,58.40
2023-03-26T07:58:35.221Z,59.53
2023-03-26T08:01:42.641Z,59.08
2023-03-26T08:05:03.015Z,59.69
2023-03-26T08:08:16.036Z,59.78
2023-03-26T08:11:34.254Z,58.52
2023-03-26T08:14:48.289Z,56.70
2023-03-26T08:17:54.081Z,54.83
2023-03-26T08:21:00.813Z,52.91
2023-03-26T08:24:08.643Z,53.10
2023-03-26T08:27:16.968Z,51.98
2023-03-26T08:30:21.429Z,51.93
2023-03-26T08:33:26.512Z,52.01
2023-03-26T08:36:29.650Z,50.30
2023-03-26T08:39:31.766Z,49.99
2023-03-26T08:43:05.659Z,49.77
2023-03-26T08:46:21.980Z,48.85
2023-03-26T08:49:49.224Z,46.17
2023-03-26T08:53:20.582Z,45.11
2023-03-26T08:56:32.897Z,45.01
2023-03-26T09:00:15.498Z,46.11
2023-03-26T09:04:08.013Z,45.77
2023-03-26T09:07:44.136Z,46.55
2023-03-26T09:11:05.867Z,47.07
2023-03-26T09:14:39.894Z,48.23
2023-03-26T09:18:07.352Z,47.03
2023-03-26T09:21:43.925Z,46.98
2023-03-26T09:25:18.425Z,46.96
2023-03-26T09:28:58.460Z,47.79
2023-03-26T09:32:24.103Z,44.60
2023-03-26T09:35:48.950Z,44.64
2023-03-26T09:38:53.844Z,44.99
2023-03-26T09:42:07.771Z,45.73
2023-03-26T09:45:35.160Z,45.95
2023-03-26T09:49:04.752Z,46.79
2023-03-26T09:52:26.718Z,47.18
2023-03-26T09:55:38.065Z,48.68
2023-03-26T09:59:00.777Z,48.16
2023-03-26T10:02:16.281Z,45.75
2023-03-26T10:05:27.246Z,46.03
2023-03-26T10:08:45.168Z,45.39
2023-03-26T10:12:05.062Z,45.10
2023-03-26T10:15:23.433Z,44.24
2023-03-26T10:18:37.503Z,43.37
2023-03-26T10:21:45.361Z,43.08
2023-03-26T10:25:02.318Z,41.54
2023-03-26T10:28:17.745Z,40.18
2023-03-26T10:31:40.413Z,42.63
2023-03-26T10:34:55.938Z,43.91
2023-03-26T10:38:01.569Z,43.39
2023-03-26T10:41:12.455Z,42.79
2023-03-26T10:44:59.128Z,42.58
2023-03-26T10:48:27.761Z,40.76
2023-03-26T10:51:47.041Z,39.63
2023-03-26T10:54:55.646Z,40.74
2023-03-26T10:58:03.077Z,39.40
2023-03-26T11:01:11.236Z,40.44
2023-03-26T11:04:24.148Z,40.70
2023-03-26T11:07:33.571Z,39.49
2023-03-26T11:10:45.871Z,40.37
2023-03-26T11:13:57.703Z,42.53
2023-03-26T11:17:14.834Z,45.86
2023-03-26T11:20:38.761Z,46.52
2023-03-26T11:23:49.670Z,47.37
2023-03-26T11:27:18.393Z,47.99
2023-03-26T11:30:30.034Z,47.91
2023-03-26T11:33:35.634Z,48.04
2023-03-26T11:36:43.442Z,48.45
2023-03-26T11:39:50.411Z,47.96
2023-03-26T11:42:59.015Z,48.41
2023-03-26T11:46:04.194Z,48.02
2023-03-26T11:49:09.428Z,46.92
2023-03-26T11:52:12.046Z,46.24
2023-03-26T11:55:14.221Z,45.94
2023-03-26T11:58:25.991Z,45.62
2023-03-26T12:01:41.435Z,44.03
2023-03-26T12:04:45.030Z,44.42
2023-03-26T12:07:51.863Z,45.47
2023-03-26T12:11:01.144Z,44.84
2023-03-26T12:14:04.957Z,45.06
2023-03-26T12:17:12.212Z,43.16
2023-03-26T12:20:35.145Z,42.41
2023-03-26T12:23:54.140Z,43.42
2023-03-26T12:27:00.439Z,42.03
2023-03-26T12:30:12.526Z,42.57
2023-03-26T12:33:19.807Z,42.19
2023-03-26T12:36:23.334Z,41.73
2023-03-26T12:40:10.741Z,41.01
2023-03-26T12:44:56.466Z,40.04
2023-03-26T12:47:56.097Z,39.83
2023-03-26T12:50:13.259Z,36.58
2023-03-26T12:53:37.965Z,35.54
2023-03-26T12:56:48.580Z,34.25
2023-03-26T13:00:42.414Z,33.35
2023-03-26T13:04:03.467Z,33.45
2023-03-26T13:07:17.090Z,33.22
2023-03-26T13:10:34.415Z,31.20
2023-03-26T13:13:58.335Z,30.71
2023-03-26T13:17:04.713Z,31.10
2023-03-26T13:20:15.237Z,32.17
2023-03-26T13:23:31.097Z,32.24
2023-03-26T13:26:49.158Z,32.38
2023-03-26T13:29:58.355Z,31.40
2023-03-26T13:33:16.937Z,32.42
2023-03-26T13:36:24.332Z,32.50
2023-03-26T13:39:37.659Z,31.79
2023-03-26T13:42:50.858Z,30.85
2023-03-26T13:45:59.707Z,31.73
2023-03-26T13:49:09.220Z,32.33
2023-03-26T13:52:15.505Z,32.46
2023-03-26T13:55:26.000Z,33.56
2023-03-26T13:58:35.787Z,34.61
2023-03-26T14:01:44.970Z,34.23
2023-03-26T14:04:51.635Z,34.33
2023-03-26T14:07:58.698Z,33.18
2023-03-26T14:11:09.590Z,33.78
2023-03-26T14:14:18.367Z,33.85
2023-03-26T14:17:25.063Z,32.36
2023-03-26T14:20:49.525Z,31.87
2023-03-26T14:24:27.148Z,31.97
2023-03-26T14:27:44.573Z,32.03
2023-03-26T14:31:12.595Z,33.21
2023-03-26T14:34:28.096Z,33.65
2023-03-26T14:37:43.884Z,35.72
2023-03-26T14:40:58.215Z,34.36
2023-03-26T14:44:47.830Z,35.59
2023-03-26T14:48:04.043Z,34.39
2023-03-26T14:51:20.052Z,34.71
2023-03-26T14:54:26.789Z,35.13
2023-03-26T14:57:57.696Z,35.82
2023-03-26T15:01:24.372Z,35.00
2023-03-26T15:04:56.780Z,35.36
2023-03-26T15:08:33.940Z,33.58
2023-03-26T15:11:47.926Z,32.95
2023-03-26T15:15:32.211Z,32.52
2023-03-26T15:19:03.819Z,33.71
2023-03-26T15:22:53.377Z,34.00
2023-03-26T15:26:28.538Z,33.10
2023-03-26T15:30:06.234Z,33.65
2023-03-26T15:33:38.913Z,35.16
2023-03-26T15:37:16.435Z,32.66
2023-03-26T15:40:29.437Z,33.41
2023-03-26T15:44:23.501Z,34.04
2023-03-26T15:47:47.257Z,34.25
2023-03-26T15:50:55.074Z,35.11
2023-03-26T15:54:05.941Z,35.22
2023-03-26T15:57:17.481Z,34.82
2023-03-26T16:00:24.414Z,35.54
2023-03-26T16:03:35.438Z,35.70
2023-03-26T16:06:51.882Z,35.98
2023-03-26T16:10:09.872Z,35.35
2023-03-26T16:13:39.286Z,36.04
2023-03-26T16:16:55.690Z,35.86
2023-03-26T16:20:23.000Z,37.43
2023-03-26T16:23:28.799Z,36.91
2023-03-26T16:26:47.550Z,36.34
2023-03-26T16:30:16.249Z,36.69
2023-03-26T16:33:22.482Z,37.36
2023-03-26T16:36:29.546Z,37.17
2023-03-26T16:39:41.969Z,38.90
2023-03-26T16:42:49.677Z,38.38
2023-03-26T16:45:59.691Z,39.17
2023-03-26T16:49:15.923Z,38.78
2023-03-26T16:52:41.123Z,39.34
2023-03-26T16:55:52.239Z,38.62
2023-03-26T16:58:56.887Z,39.37
2023-03-26T17:02:07.344Z,39.73
2023-03-26T17:05:20.017Z,39.77
2023-03-26T17:08:36.728Z,40.36
2023-03-26T17:11:50.218Z,40.08
2023-03-26T17:15:03.670Z,40.87
2023-03-26T17:18:34.036Z,41.39
2023-03-26T17:21:50.990Z,41.67
2023-03-26T17:25:00.631Z,41.78
2023-03-26T17:28:23.636Z,41.82
2023-03-26T17:31:38.153Z,42.16
2023-03-26T17:34:59.615Z,41.46
2023-03-26T17:38:04.747Z,41.95
2023-03-26T17:41:08.400Z,42.56
2023-03-26T17:44:36.274Z,43.28
2023-03-26T17:47:40.126Z,43.63
2023-03-26T17:50:52.804Z,44.80
2023-03-26T17:54:00.064Z,44.82
2023-03-26T17:57:06.966Z,45.11
2023-03-26T18:00:17.167Z,45.53
2023-03-26T18:03:24.694Z,45.91
2023-03-26T18:06:45.761Z,46.71
2023-03-26T18:10:13.366Z,46.14
2023-03-26T18:13:59.335Z,45.99
2023-03-26T18:17:02.349Z,46.74
2023-03-26T18:20:07.363Z,47.09
2023-03-26T18:23:12.979Z,47.43
2023-03-26T18:26:21.889Z,46.47
2023-03-26T18:29:26.841Z,46.53
2023-03-26T18:32:31.522Z,46.80
2023-03-26T18:35:41.881Z,46.73
2023-03-26T18:38:46.905Z,46.95
2023-03-26T18:41:54.526Z,47.50
2023-03-26T18:45:04.771Z,46.64
2023-03-26T18:48:16.694Z,46.74
2023-03-26T18:51:27.728Z,46.37
2023-03-26T18:54:36.100Z,46.33
2023-03-26T18:57:42.125Z,46.75
2023-03-26T19:00:48.526Z,46.48
2023-03-26T19:03:53.903Z,46.72
2023-03-26T19:07:08.911Z,46.74
2023-03-26T19:10:17.135Z,47.21
2023-03-26T19:13:28.325Z,46.72
2023-03-26T19:16:34.429Z,47.18
2023-03-26T19:19:38.358Z,47.38
2023-03-26T19:22:41.968Z,47.56
2023-03-26T19:25:47.309Z,47.06
2023-03-26T19:28:53.637Z,47.11
2023-03-26T19:32:04.082Z,46.73
2023-03-26T19:35:22.029Z,47.02
2023-03-26T19:38:26.728Z,46.80
2023-03-26T19:41:33.775Z,46.28
2023-03-26T19:44:39.247Z,46.59
2023-03-26T19:47:50.482Z,45.59
2023-03-26T19:51:02.362Z,44.09
2023-03-26T19:54:14.528Z,44.50
2023-03-26T19:57:18.904Z,44.92
2023-03-26T20:00:23.158Z,44.38
2023-03-26T20:03:29.890Z,44.70
2023-03-26T20:06:43.206Z,44.68
2023-03-26T20:09:47.556Z,44.39
2023-03-26T20:12:55.351Z,44.75
2023-03-26T20:16:06.609Z,44.53
2023-03-26T20:19:09.502Z,44.30
2023-03-26T20:22:15.540Z,44.04
2023-03-26T20:25:21.089Z,44.17
2023-03-26T20:28:24.714Z,45.14
2023-03-26T20:31:31.784Z,44.92
2023-03-26T20:34:34.269Z,45.12
2023-03-26T20:37:37.142Z,45.62
2023-03-26T20:40:39.629Z,45.66
2023-03-26T20:43:43.795Z,46.55
2023-03-26T20:46:49.418Z,46.47
2023-03-26T20:49:52.091Z,46.81
2023-03-26T20:52:54.592Z,46.64
2023-03-26T20:55:56.736Z,47.20
2023-03-26T21:02:04.652Z,47.24
2023-03-26T21:05:06.863Z,47.74
2023-03-26T21:08:14.725Z,47.59
2023-03-26T21:11:27.231Z,47.13
2023-03-26T21:14:33.082Z,47.26
2023-03-26T21:17:37.702Z,47.75
2023-03-26T21:20:41.983Z,47.94
2023-03-26T21:23:49.898Z,48.28
2023-03-26T21:26:58.965Z,48.32
2023-03-26T21:30:01.216Z,47.84
2023-03-26T21:33:04.334Z,47.60
2023-03-26T21:36:07.054Z,48.29
2023-03-26T21:39:10.664Z,48.90
2023-03-26T21:42:12.921Z,50.32
2023-03-26T21:45:15.534Z,51.25
2023-03-26T21:48:19.344Z,52.01
2023-03-26T21:51:21.491Z,53.78
2023-03-26T21:54:25.476Z,56.39
2023-03-26T21:57:43.835Z,58.07
2023-03-26T22:00:56.762Z,59.25
2023-03-26T22:04:08.438Z,60.53
2023-03-26T22:07:15.616Z,62.33
2023-03-26T22:10:17.556Z,64.30
2023-03-26T22:13:19.224Z,66.90
2023-03-26T22:16:20.992Z,67.76
2023-03-26T22:19:24.162Z,70.20
2023-03-26T22:22:26.012Z,72.19
2023-03-26T22:25:27.753Z,73.93
2023-03-26T22:28:29.858Z,75.31
2023-03-26T22:31:31.585Z,77.83
2023-03-26T22:34:34.904Z,79.79
2023-03-26T22:37:36.941Z,80.59
2023-03-26T22:40:38.853Z,81.95
2023-03-26T22:43:40.537Z,81.79
2023-03-26T22:46:42.337Z,82.71
2023-03-26T22:49:45.439Z,82.91
2023-03-26T22:52:47.402Z,83.41
2023-03-26T22:55:49.076Z,84.35
2023-03-26T22:58:50.806Z,85.35
2023-03-26T23:01:52.594Z,84.87
2023-03-26T23:04:55.879Z,85.86
2023-03-26T23:07:57.966Z,86.09
2023-03-26T23:10:59.699Z,86.08
2023-03-26T23:14:01.700Z,85.94
2023-03-26T23:17:03.895Z,87.28
2023-03-26T23:20:08.360Z,86.69
2023-03-26T23:23:10.031Z,87.46
2023-03-26T23:26:11.876Z,87.80
2023-03-26T23:29:13.828Z,87.91
2023-03-26T23:32:24.654Z,87.81
2023-03-26T23:35:28.503Z,87.58
2023-03-26T23:38:44.102Z,88.22
2023-03-26T23:41:46.308Z,88.12
2023-03-26T23:44:47.984Z,88.51
2023-03-26T23:47:49.967Z,88.58
2023-03-26T23:50:53.984Z,88.27
2023-03-26T23:54:06.105Z,88.96
2023-03-26T23:57:08.182Z,89.73
